James M Cox Dayton International Airport
KDAY : rendu visible

Aérodrome :











RETROUVEZ-NOUS SUR...

 
LOGIN :

S'inscrire | Disclaimer

   EN    FR    IT 

 









Légende :    VFR   VFR Marginal   IFR   IFR Intensif   IFR Très Intensif
Visi : 
Plafond : 
>= 8 km
>= 3000ft
5 à 8 km
1000 à 3000 ft
1500m à 5 km
500 à 1000 ft
800 à 1500m
200 à 500 ft
< 800m
< 200 ft
Symboles :   Orages  Brouillard  Fortes neiges  Fortes précipitations  Vent > 20 kt







- Altitude de l'aérodrome : 1009 ft
- Code IATA : DAY


KDAY - James M Cox Dayton International

DERNIER METAR :
  • 172156Z 32011KT 10SM SCT028TCU SCT110 30/23 A2993 RMK AO2 SLP124 TCU ALQDS T03000228

METARs EXPIRÉS :
  • 172056Z 30009KT 10SM SCT028TCU SCT110 29/24 A2992 RMK AO2 RAE15 SLP121 TCU ALQDS P0005 60005 T02890239 58011
  • 172018Z 31005KT 10SM SCT028TCU BKN055 BKN110 28/24 A2993 RMK AO2 RAE15 TCU ALQDS P0005 T02830239
  • 172005Z COR 33005KT 10SM -RA FEW009 SCT029 BKN050 BKN075 26/23 A2993 RMK AO2 P0003 T02560228
  • 171956Z 28011G22KT 3SM R06L/1800VP6000FT -RA SCT025 BKN034 BKN075 26/22 A2994 RMK AO2 RAB48 SLP131 P0000 T02610222

TAF KDAY
Valide du 17 à 18h jusqu'au 18 à 18h UTC


171748Z 1718/1818 28010KT P6SM VCSH BKN025
FM172000 30010KT P6SM VCSH BKN035
FM180100 32007KT P6SM BKN040
FM180900 26003KT 2SM BR SCT015
FM181300 22004KT P6SM SCT025
FM181500 21005KT P6SM SCT040
FIR KZID / Amérique du Nord



MET'MAP, la Météo Aéronautique d'un coup d'oeil ! - Copyright ORBIFLY Décembre 2007 - Disclaimer

ORBIFLY MET'MAP TEAM :

Programmation & Développement : Alexandra Zaïnal
Conception & Développement : Baudouin d'Aumeries
Co-Programmation & Développement : Marc-Olivier Méhu
Soutien technique & logistique : Manuel Goepfert

Contact : metmap@orbifly.com




SOURCES & CREDITS :

   NOAA       Earth
Advisory